Time;durP1;ratioP1;P1;durP2;ratioP2;P2;SDS_P1;SDS_P2;PMS_P1;PMS_P2;Temp;Humidity;BMP_temperature;BMP_pressure;BME280_temperature;BME280_humidity;BME280_pressure;Samples;Min_cycle;Max_cycle;Signal;HPM_P1;HPM_P2
2022/07/05 00:02:04;;;;;;;0.47;0.47;;;21.40;54.90;;;;;;5113750;28;20077;-70
2022/07/05 00:04:33;;;;;;;0.80;0.20;;;21.40;54.90;;;;;;5114956;28;20043;-70
2022/07/05 00:07:30;;;;;;;0.50;0.20;;;21.30;54.90;;;;;;5113616;28;20429;-70
2022/07/05 00:09:47;;;;;;;0.70;0.15;;;21.30;54.90;;;;;;5113296;28;20102;-70
2022/07/05 00:12:13;;;;;;;0.28;0.17;;;21.30;55.00;;;;;;5114796;28;20046;-69
2022/07/05 00:14:40;;;;;;;0.50;0.20;;;21.30;55.00;;;;;;5113451;28;20035;-70
2022/07/05 00:17:06;;;;;;;0.55;0.10;;;21.30;55.00;;;;;;5113748;28;20109;-70
2022/07/05 00:19:32;;;;;;;0.40;0.20;;;21.30;55.00;;;;;;5113535;28;20040;-69
2022/07/05 00:21:58;;;;;;;0.63;0.20;;;21.30;55.00;;;;;;5113313;28;20036;-70
2022/07/05 00:24:25;;;;;;;0.40;0.28;;;21.30;55.00;;;;;;5113285;28;20046;-70
2022/07/05 00:26:50;;;;;;;0.85;0.43;;;21.20;55.00;;;;;;5113188;28;20078;-70
2022/07/05 00:29:16;;;;;;;0.47;0.10;;;21.20;55.00;;;;;;5113250;28;20075;-69
2022/07/05 00:31:51;;;;;;;2.70;0.40;;;21.20;55.00;;;;;;5113278;28;20039;-70
2022/07/05 00:34:16;;;;;;;0.30;0.10;;;21.20;55.00;;;;;;5112775;28;20044;-70
2022/07/05 00:36:42;;;;;;;0.30;0.20;;;21.30;55.10;;;;;;5113231;28;20122;-69
2022/07/05 00:39:11;;;;;;;0.20;0.10;;;21.20;55.10;;;;;;5114291;28;20413;-70
2022/07/05 00:41:37;;;;;;;0.60;0.20;;;21.20;55.10;;;;;;5113168;28;20066;-70
2022/07/05 00:44:06;;;;;;;0.50;0.10;;;21.20;55.10;;;;;;5114244;28;20468;-69
2022/07/05 00:46:36;;;;;;;0.45;0.10;;;21.20;55.20;;;;;;5112829;28;20046;-70
2022/07/05 00:49:03;;;;;;;0.57;0.20;;;21.20;55.10;;;;;;5114090;28;20043;-70
2022/07/05 00:51:35;;;;;;;0.40;0.20;;;21.10;55.10;;;;;;5113078;28;20127;-70
2022/07/05 00:54:01;;;;;;;0.28;0.20;;;21.10;55.10;;;;;;5112724;28;20044;-69
2022/07/05 00:56:27;;;;;;;0.40;0.20;;;21.20;55.20;;;;;;5113913;28;20039;-69
2022/07/05 00:58:53;;;;;;;0.40;0.20;;;21.10;55.10;;;;;;5113870;28;20039;-70
2022/07/05 01:01:19;;;;;;;1.48;0.20;;;21.10;55.20;;;;;;5113798;28;20036;-69
2022/07/05 01:03:45;;;;;;;0.57;0.20;;;21.10;55.20;;;;;;5113775;28;20039;-69
2022/07/05 01:06:12;;;;;;;0.22;0.10;;;21.10;55.20;;;;;;5112743;28;20044;-70
2022/07/05 01:08:41;;;;;;;0.32;0.10;;;21.10;55.20;;;;;;5112648;28;20046;-69
2022/07/05 01:11:09;;;;;;;0.82;0.20;;;21.10;55.30;;;;;;5112589;28;20043;-70
2022/07/05 01:13:36;;;;;;;0.40;0.17;;;21.10;55.30;;;;;;5112424;28;20444;-70
2022/07/05 01:16:03;;;;;;;0.90;0.10;;;21.00;55.20;;;;;;5112221;28;20068;-70
2022/07/05 01:18:29;;;;;;;0.40;0.10;;;21.00;55.20;;;;;;5112232;28;20052;-70
2022/07/05 01:20:56;;;;;;;0.68;0.20;;;21.00;55.20;;;;;;5112158;28;20036;-70
2022/07/05 01:23:23;;;;;;;0.75;0.20;;;21.00;55.30;;;;;;5112159;28;20253;-70
2022/07/05 01:25:49;;;;;;;0.40;0.10;;;21.00;55.20;;;;;;5112326;28;20080;-70
2022/07/05 01:28:15;;;;;;;1.50;0.20;;;21.00;55.20;;;;;;5113371;28;20043;-70
2022/07/05 01:30:42;;;;;;;0.30;0.10;;;21.00;55.20;;;;;;5111971;28;20398;-70
2022/07/05 01:33:08;;;;;;;0.20;0.10;;;21.00;55.20;;;;;;5112719;28;20459;-69
2022/07/05 01:35:35;;;;;;;0.40;0.15;;;21.00;55.20;;;;;;5113350;28;20055;-69
2022/07/05 01:38:01;;;;;;;0.22;0.10;;;21.00;55.20;;;;;;5111995;28;20127;-70
2022/07/05 01:40:27;;;;;;;0.60;0.17;;;21.00;55.20;;;;;;5112164;28;20085;-70
2022/07/05 01:42:53;;;;;;;1.38;0.10;;;20.90;55.20;;;;;;5113007;28;20062;-70
2022/07/05 01:45:50;;;;;;;1.08;0.10;;;21.00;55.30;;;;;;5112701;28;20048;-69
2022/07/05 01:48:11;;;;;;;0.57;0.20;;;20.90;55.30;;;;;;5112263;28;20091;-69
2022/07/05 01:50:44;;;;;;;1.23;0.20;;;20.90;55.30;;;;;;5112941;28;20047;-70
2022/07/05 01:53:14;;;;;;;0.82;0.10;;;20.90;55.30;;;;;;5111412;28;20047;-69
2022/07/05 01:55:40;;;;;;;0.30;0.10;;;20.90;55.30;;;;;;5113025;28;20376;-70
2022/07/05 01:58:07;;;;;;;0.52;0.20;;;20.90;55.40;;;;;;5111358;28;20058;-70
2022/07/05 02:00:52;;;;;;;0.45;0.20;;;20.80;55.30;;;;;;5111430;28;20065;-69
2022/07/05 02:03:18;;;;;;;0.95;0.15;;;20.90;55.30;;;;;;5111346;28;20047;-70
2022/07/05 02:05:46;;;;;;;0.90;0.20;;;20.90;55.30;;;;;;5111367;28;20042;-70
2022/07/05 02:08:14;;;;;;;1.50;0.20;;;20.80;55.30;;;;;;5112642;28;20038;-70
2022/07/05 02:10:41;;;;;;;0.30;0.10;;;20.80;55.30;;;;;;5110910;28;20071;-70
2022/07/05 02:13:07;;;;;;;1.05;0.10;;;20.80;55.30;;;;;;5111201;28;20445;-70
2022/07/05 02:15:35;;;;;;;0.35;0.10;;;20.80;55.30;;;;;;5111466;28;20031;-70
2022/07/05 02:18:02;;;;;;;0.52;0.10;;;20.80;55.30;;;;;;5111445;28;20039;-70
2022/07/05 02:20:29;;;;;;;0.40;0.10;;;20.80;55.30;;;;;;5094401;28;20085;-69
2022/07/05 02:22:54;;;;;;;1.02;0.10;;;20.80;55.30;;;;;;5111136;28;20495;-69
2022/07/05 02:25:20;;;;;;;0.88;0.20;;;20.80;55.30;;;;;;5111006;28;20040;-70
2022/07/05 02:27:46;;;;;;;0.55;0.10;;;20.80;55.30;;;;;;5111011;28;20044;-70
2022/07/05 02:30:13;;;;;;;0.43;0.20;;;20.70;55.30;;;;;;5112316;28;20487;-69
2022/07/05 02:32:38;;;;;;;0.68;0.10;;;20.70;55.30;;;;;;5111022;28;20070;-70
2022/07/05 02:35:05;;;;;;;0.65;0.10;;;20.80;55.30;;;;;;5110980;28;20047;-70
2022/07/05 02:37:31;;;;;;;0.35;0.10;;;20.70;55.30;;;;;;5111001;28;20526;-70
2022/07/05 02:39:56;;;;;;;0.25;0.20;;;20.70;55.30;;;;;;5112198;28;20067;-70
2022/07/05 02:42:22;;;;;;;0.50;0.20;;;20.70;55.30;;;;;;5110895;28;20063;-70
2022/07/05 02:44:48;;;;;;;1.20;0.10;;;20.70;55.30;;;;;;5110738;28;20114;-70
2022/07/05 02:47:13;;;;;;;0.85;0.10;;;20.70;55.30;;;;;;5110937;28;20079;-70
2022/07/05 02:49:39;;;;;;;0.52;0.10;;;20.70;55.30;;;;;;5110860;28;20085;-70
2022/07/05 02:52:04;;;;;;;0.90;0.20;;;20.70;55.40;;;;;;5112286;28;20036;-70
2022/07/05 02:54:30;;;;;;;0.70;0.10;;;20.70;55.40;;;;;;5111721;28;20036;-70
2022/07/05 02:56:56;;;;;;;1.55;0.13;;;20.70;55.40;;;;;;5114954;28;20126;-69
2022/07/05 02:59:22;;;;;;;0.73;0.60;;;20.70;55.40;;;;;;5116367;28;20027;-70
2022/07/05 03:01:48;;;;;;;0.30;0.10;;;20.60;55.40;;;;;;5115280;28;20484;-70
2022/07/05 03:04:14;;;;;;;1.08;0.10;;;20.70;55.40;;;;;;5115139;28;20368;-69
2022/07/05 03:06:42;;;;;;;0.35;0.10;;;20.60;55.40;;;;;;5115151;28;20399;-70
2022/07/05 03:09:08;;;;;;;0.20;0.10;;;20.60;55.30;;;;;;5116020;28;20483;-69
2022/07/05 03:11:34;;;;;;;1.92;0.22;;;20.60;55.30;;;;;;5114960;28;20042;-69
2022/07/05 03:14:02;;;;;;;0.88;0.20;;;20.60;55.30;;;;;;5114551;28;20437;-70
2022/07/05 03:16:29;;;;;;;0.82;0.10;;;20.60;55.30;;;;;;5115843;28;20036;-69
2022/07/05 03:18:54;;;;;;;0.30;0.10;;;20.60;55.30;;;;;;5114650;28;20039;-70
2022/07/05 03:21:20;;;;;;;0.93;0.10;;;20.60;55.30;;;;;;5114496;28;20040;-70
2022/07/05 03:23:46;;;;;;;1.00;0.20;;;20.60;55.30;;;;;;5114728;28;20061;-69
2022/07/05 03:26:11;;;;;;;1.65;0.20;;;20.60;55.40;;;;;;5114657;28;20056;-69
2022/07/05 03:28:37;;;;;;;0.52;0.20;;;20.60;55.30;;;;;;5114668;28;20475;-70
2022/07/05 03:31:03;;;;;;;0.90;0.20;;;20.60;55.30;;;;;;5115790;28;20474;-70
2022/07/05 03:33:28;;;;;;;0.68;0.20;;;20.50;55.30;;;;;;5114049;28;20040;-70
2022/07/05 03:35:54;;;;;;;1.08;0.30;;;20.50;55.30;;;;;;5114344;28;20051;-70
2022/07/05 03:38:20;;;;;;;1.60;0.20;;;20.50;55.30;;;;;;5114257;28;20394;-70
2022/07/05 03:40:49;;;;;;;2.17;0.38;;;20.50;55.30;;;;;;5114167;28;20036;-70
2022/07/05 03:43:14;;;;;;;0.98;0.20;;;20.50;55.30;;;;;;5113990;28;20047;-69
2022/07/05 03:45:42;;;;;;;0.30;0.20;;;20.50;55.40;;;;;;5114261;28;20133;-70
2022/07/05 03:48:08;;;;;;;0.40;0.13;;;20.50;55.40;;;;;;5115308;28;20122;-70
2022/07/05 03:50:34;;;;;;;1.20;0.17;;;20.50;55.40;;;;;;5115596;28;20164;-70
2022/07/05 03:52:59;;;;;;;0.40;0.38;;;20.50;55.40;;;;;;5114034;28;20031;-69
2022/07/05 03:55:25;;;;;;;2.67;0.43;;;20.50;55.50;;;;;;5115290;28;20391;-70
2022/07/05 03:57:51;;;;;;;1.85;0.20;;;20.50;55.50;;;;;;5114021;28;20043;-69
2022/07/05 04:00:16;;;;;;;1.27;0.30;;;20.50;55.50;;;;;;5113793;28;20494;-70
2022/07/05 04:02:45;;;;;;;0.77;0.20;;;20.50;55.50;;;;;;5113618;28;20043;-69
2022/07/05 04:05:11;;;;;;;0.73;0.20;;;20.50;55.60;;;;;;5113528;28;20391;-70
2022/07/05 04:07:48;;;;;;;0.82;0.20;;;20.50;55.50;;;;;;5115001;28;20035;-70
2022/07/05 04:10:14;;;;;;;0.47;0.20;;;20.50;55.60;;;;;;5114958;28;20152;-70
2022/07/05 04:12:40;;;;;;;1.13;0.20;;;20.50;56.30;;;;;;5114600;28;20452;-73
2022/07/05 04:15:06;;;;;;;0.80;0.20;;;20.50;55.60;;;;;;5114970;28;20077;-69
2022/07/05 04:17:31;;;;;;;0.70;0.20;;;20.50;55.60;;;;;;5114835;27;20054;-70
2022/07/05 04:19:57;;;;;;;2.05;0.20;;;20.50;55.60;;;;;;5113475;28;20410;-70
2022/07/05 04:22:23;;;;;;;0.70;0.20;;;20.50;55.60;;;;;;5114784;28;20043;-70
2022/07/05 04:25:20;;;;;;;1.52;0.40;;;20.50;55.60;;;;;;5113387;28;20122;-70
2022/07/05 04:27:34;;;;;;;2.28;0.32;;;20.50;55.60;;;;;;5113126;28;20126;-70
2022/07/05 04:30:00;;;;;;;0.85;0.38;;;20.50;55.60;;;;;;5113490;28;20085;-70
2022/07/05 04:32:25;;;;;;;0.80;0.28;;;20.50;55.60;;;;;;5114277;28;20074;-70
2022/07/05 04:34:51;;;;;;;1.48;0.20;;;20.50;55.60;;;;;;5113503;28;20039;-70
2022/07/05 04:37:17;;;;;;;1.08;0.30;;;20.50;55.60;;;;;;5113334;28;20494;-70
2022/07/05 04:39:42;;;;;;;0.98;0.45;;;20.50;55.70;;;;;;5113018;28;20491;-70
2022/07/05 04:42:11;;;;;;;0.55;0.20;;;20.50;55.70;;;;;;5112965;28;20040;-70
2022/07/05 04:44:36;;;;;;;0.77;0.25;;;20.50;55.70;;;;;;5112780;28;20062;-70
2022/07/05 04:47:02;;;;;;;0.43;0.20;;;20.50;55.70;;;;;;5112917;28;20058;-70
2022/07/05 04:49:28;;;;;;;0.95;0.20;;;20.50;55.70;;;;;;5112820;28;20176;-69
2022/07/05 04:51:53;;;;;;;1.23;0.22;;;20.50;55.70;;;;;;5112814;28;20039;-70
2022/07/05 04:54:19;;;;;;;0.70;0.22;;;20.50;55.70;;;;;;5113939;28;20028;-70
2022/07/05 04:56:45;;;;;;;0.82;0.20;;;20.50;55.70;;;;;;5113928;28;20043;-70
2022/07/05 04:59:10;;;;;;;1.20;0.20;;;20.50;55.70;;;;;;5112824;28;20039;-70
2022/07/05 05:01:36;;;;;;;0.95;0.20;;;20.50;55.70;;;;;;5112581;28;20065;-69
2022/07/05 05:04:01;;;;;;;0.90;0.30;;;20.50;55.80;;;;;;5113785;28;20051;-70
2022/07/05 05:06:27;;;;;;;0.65;0.20;;;20.50;55.70;;;;;;5112508;28;20104;-69
2022/07/05 05:08:53;;;;;;;1.30;0.28;;;20.50;55.70;;;;;;5112363;28;20065;-70
2022/07/05 05:11:18;;;;;;;0.60;0.10;;;20.50;55.80;;;;;;5113689;28;20118;-70
2022/07/05 05:13:46;;;;;;;1.02;0.20;;;20.50;55.80;;;;;;5112166;28;20043;-71
2022/07/05 05:16:12;;;;;;;1.88;0.52;;;20.50;55.80;;;;;;5112251;28;20082;-70
2022/07/05 05:18:38;;;;;;;2.10;0.28;;;20.50;55.80;;;;;;5111500;28;20063;-70
2022/07/05 05:21:04;;;;;;;1.08;0.20;;;20.50;55.80;;;;;;5112117;28;20039;-70
2022/07/05 05:23:29;;;;;;;1.10;0.22;;;20.50;55.80;;;;;;5112207;28;20193;-70
2022/07/05 05:25:55;;;;;;;2.15;0.20;;;20.50;55.80;;;;;;5112310;28;20043;-69
2022/07/05 05:28:21;;;;;;;0.70;0.20;;;20.50;55.80;;;;;;5113377;28;20089;-70
2022/07/05 05:30:46;;;;;;;0.88;0.20;;;20.50;55.80;;;;;;5112030;28;20043;-70
2022/07/05 05:33:12;;;;;;;0.60;0.30;;;20.50;55.80;;;;;;5112959;28;20113;-70
2022/07/05 05:35:38;;;;;;;0.85;0.20;;;20.50;55.80;;;;;;5111959;28;20472;-70
2022/07/05 05:38:04;;;;;;;1.33;0.22;;;20.50;55.80;;;;;;5111020;28;20043;-68
2022/07/05 05:40:29;;;;;;;0.50;0.20;;;20.60;55.90;;;;;;5111321;28;20027;-67
2022/07/05 05:42:56;;;;;;;1.80;0.30;;;20.50;55.90;;;;;;5107284;28;20134;-68
2022/07/05 05:45:22;;;;;;;1.35;0.20;;;20.50;56.20;;;;;;5122786;27;20047;-65
2022/07/05 05:47:51;;;;;;;7.30;1.30;;;20.60;56.40;;;;;;5111261;28;20050;-65
2022/07/05 05:50:21;;;;;;;4.60;0.30;;;20.60;56.80;;;;;;5109477;28;20059;-66
2022/07/05 05:52:56;;;;;;;2.45;0.55;;;20.70;57.60;;;;;;5110369;28;20047;-66
2022/07/05 05:55:23;;;;;;;1.90;0.28;;;20.70;57.80;;;;;;5110452;28;20225;-68
2022/07/05 05:57:49;;;;;;;1.58;0.40;;;20.70;57.70;;;;;;5108238;28;20039;-68
2022/07/05 06:00:16;;;;;;;0.35;0.13;;;20.80;57.80;;;;;;5110643;28;20046;-67
2022/07/05 06:02:43;;;;;;;1.45;0.20;;;20.80;57.60;;;;;;5110050;28;20039;-67
2022/07/05 06:05:09;;;;;;;0.50;0.10;;;20.80;57.50;;;;;;5110167;28;20040;-67
2022/07/05 06:07:55;;;;;;;0.88;0.22;;;20.90;57.40;;;;;;5106506;28;20124;-69
2022/07/05 06:10:24;;;;;;;2.25;0.13;;;20.90;57.30;;;;;;5095868;28;20070;-67
2022/07/05 06:12:51;;;;;;;1.50;0.20;;;20.90;57.10;;;;;;5098988;28;20561;-67
2022/07/05 06:15:18;;;;;;;2.08;0.20;;;20.90;57.00;;;;;;5093219;28;20047;-67
2022/07/05 06:17:44;;;;;;;1.05;0.20;;;20.90;57.10;;;;;;5104739;28;20483;-68
2022/07/05 06:20:14;;;;;;;1.77;0.30;;;20.90;57.50;;;;;;5101612;28;20035;-68
2022/07/05 06:22:43;;;;;;;;;;;20.90;57.50;;;;;;5105667;28;20035;-71
2022/07/05 06:25:09;;;;;;;3.92;0.30;;;21.00;58.00;;;;;;5098846;28;19920;-71
2022/07/05 06:27:39;;;;;;;1.98;0.32;;;21.00;57.60;;;;;;5092635;28;20043;-69
2022/07/05 06:30:06;;;;;;;4.35;0.30;;;21.00;57.80;;;;;;5094667;28;20850;-68
2022/07/05 06:32:32;;;;;;;3.05;0.30;;;21.00;58.00;;;;;;5094617;27;20080;-68
2022/07/05 06:34:59;;;;;;;3.10;0.30;;;21.00;58.30;;;;;;5079771;28;20051;-67
2022/07/05 06:37:24;;;;;;;2.45;0.30;;;21.10;58.70;;;;;;5085364;28;20572;-63
2022/07/05 06:39:50;;;;;;;2.90;0.30;;;21.10;58.80;;;;;;5088809;28;20047;-63
2022/07/05 06:42:16;;;;;;;2.42;0.30;;;21.10;58.60;;;;;;5107323;28;20185;-63
2022/07/05 06:44:42;;;;;;;2.95;0.38;;;21.20;58.40;;;;;;5089752;28;20058;-63
2022/07/05 06:47:08;;;;;;;2.97;0.40;;;21.20;58.30;;;;;;5094662;28;20492;-64
2022/07/05 06:49:33;;;;;;;4.55;0.40;;;21.20;58.20;;;;;;5091358;28;20104;-63
2022/07/05 06:51:59;;;;;;;4.25;0.60;;;21.20;58.10;;;;;;5090445;28;20043;-67
2022/07/05 06:54:25;;;;;;;6.50;0.50;;;21.20;58.10;;;;;;5090104;28;20109;-67
2022/07/05 06:56:50;;;;;;;4.55;0.50;;;21.20;58.30;;;;;;5092323;28;20130;-65
2022/07/05 06:59:19;;;;;;;2.70;0.30;;;21.30;58.50;;;;;;5082942;28;20047;-67
2022/07/05 07:01:45;;;;;;;1.25;0.35;;;21.40;58.50;;;;;;5091566;28;20136;-67
2022/07/05 07:04:10;;;;;;;4.07;0.40;;;21.30;58.30;;;;;;5087233;28;20527;-67
2022/07/05 07:06:36;;;;;;;4.65;0.30;;;21.40;58.50;;;;;;5092932;28;20047;-67
2022/07/05 07:09:32;;;;;;;1.77;0.20;;;21.40;58.50;;;;;;5088102;28;20631;-67
2022/07/05 07:11:48;;;;;;;2.40;0.40;;;21.40;58.80;;;;;;5091147;28;20055;-66
2022/07/05 07:14:15;;;;;;;3.20;0.63;;;21.50;58.80;;;;;;5089236;28;20039;-66
2022/07/05 07:16:41;;;;;;;3.65;0.40;;;21.50;58.70;;;;;;5090065;28;20051;-65
2022/07/05 07:19:06;;;;;;;2.25;0.50;;;21.50;58.80;;;;;;5105898;28;20036;-65
2022/07/05 07:21:32;;;;;;;2.97;0.20;;;21.60;58.80;;;;;;5089248;28;20029;-66
2022/07/05 07:23:57;;;;;;;2.25;0.40;;;21.60;58.80;;;;;;5092359;28;20130;-67
2022/07/05 07:26:23;;;;;;;1.05;0.20;;;21.60;58.90;;;;;;5088581;28;20111;-68
2022/07/05 07:28:49;;;;;;;3.38;0.30;;;21.70;58.80;;;;;;5100568;28;20928;-67
2022/07/05 07:31:14;;;;;;;3.05;0.55;;;21.70;58.70;;;;;;5091194;28;20096;-67
2022/07/05 07:33:41;;;;;;;1.65;0.30;;;21.70;58.60;;;;;;5100399;28;20052;-69
2022/07/05 07:36:10;;;;;;;1.63;0.35;;;21.80;58.60;;;;;;5094901;28;20483;-67
2022/07/05 07:38:35;;;;;;;2.05;0.28;;;21.80;58.60;;;;;;5091126;28;20028;-66
2022/07/05 07:41:01;;;;;;;3.85;0.40;;;21.80;58.50;;;;;;5088698;27;20030;-66
2022/07/05 07:43:27;;;;;;;3.00;0.20;;;21.90;58.40;;;;;;5090077;27;20504;-66
2022/07/05 07:45:53;;;;;;;2.88;0.32;;;21.90;58.30;;;;;;5095665;28;20051;-66
2022/07/05 07:48:20;;;;;;;1.50;0.10;;;21.90;58.20;;;;;;5088040;28;20131;-72
2022/07/05 07:50:46;;;;;;;5.32;0.93;;;21.90;57.90;;;;;;5107062;27;20074;-71
2022/07/05 07:53:11;;;;;;;1.42;0.20;;;22.00;57.90;;;;;;5092375;27;20071;-71
2022/07/05 07:55:37;;;;;;;4.10;1.42;;;22.00;57.90;;;;;;5103617;27;20032;-72
2022/07/05 07:58:03;;;;;;;2.33;0.30;;;22.00;57.80;;;;;;5088271;28;20100;-71
2022/07/05 08:00:29;;;;;;;1.88;0.20;;;22.00;57.80;;;;;;5085511;28;20135;-68
2022/07/05 08:02:58;;;;;;;1.70;0.20;;;22.00;57.60;;;;;;5086548;28;20036;-70
2022/07/05 08:05:24;;;;;;;10.73;0.30;;;22.10;57.60;;;;;;5090491;28;20829;-67
2022/07/05 08:07:51;;;;;;;4.30;0.20;;;22.00;57.50;;;;;;5090170;27;20718;-70
2022/07/05 08:10:17;;;;;;;2.08;0.25;;;22.10;57.50;;;;;;5079788;28;20052;-69
2022/07/05 08:12:42;;;;;;;6.88;0.20;;;22.10;57.40;;;;;;5092838;28;20301;-70
2022/07/05 08:15:08;;;;;;;0.68;0.38;;;22.10;57.30;;;;;;5089240;28;20038;-71
2022/07/05 08:17:34;;;;;;;3.55;0.30;;;22.10;57.30;;;;;;5091266;28;20032;-70
2022/07/05 08:22:45;;;;;;;1.33;0.40;;;22.10;57.20;;;;;;5094651;28;20047;-69
2022/07/05 08:25:13;;;;;;;2.90;0.20;;;22.10;57.10;;;;;;5093902;28;20423;-69
2022/07/05 08:27:39;;;;;;;2.95;0.40;;;22.20;57.20;;;;;;5110815;27;20032;-69
2022/07/05 08:30:06;;;;;;;4.57;0.30;;;22.10;57.10;;;;;;5089573;28;20046;-69
2022/07/05 08:32:32;;;;;;;3.17;0.28;;;22.20;57.00;;;;;;5093017;28;20918;-71
2022/07/05 08:34:57;;;;;;;1.80;0.25;;;22.20;56.90;;;;;;5091101;28;20032;-69
2022/07/05 08:37:23;;;;;;;4.38;0.28;;;22.20;56.80;;;;;;5108748;27;20040;-70
2022/07/05 08:39:49;;;;;;;1.48;0.20;;;22.30;56.50;;;;;;5093900;27;20380;-69
2022/07/05 08:42:14;;;;;;;2.60;0.65;;;22.30;56.40;;;;;;5093132;28;20036;-68
2022/07/05 08:44:43;;;;;;;4.05;0.20;;;22.30;56.30;;;;;;5090907;28;20044;-70
2022/07/05 08:47:11;;;;;;;1.80;0.30;;;22.30;56.30;;;;;;5095319;28;20067;-68
2022/07/05 08:49:40;;;;;;;1.67;0.30;;;22.30;56.00;;;;;;5089104;27;20036;-69
2022/07/05 08:52:09;;;;;;;3.65;0.20;;;22.30;55.60;;;;;;5089124;27;20032;-68
2022/07/05 08:54:36;;;;;;;2.33;0.20;;;22.40;55.40;;;;;;5093805;28;20040;-70
2022/07/05 08:57:05;;;;;;;5.30;1.15;;;22.50;55.30;;;;;;5093568;28;20056;-71
2022/07/05 08:59:31;;;;;;;4.25;0.98;;;22.50;55.10;;;;;;5103803;27;20467;-71
2022/07/05 09:01:58;;;;;;;3.95;0.20;;;22.70;54.90;;;;;;5086183;28;20043;-72
2022/07/05 09:04:29;;;;;;;3.85;0.20;;;22.70;54.60;;;;;;5092923;28;20040;-70
2022/07/05 09:07:01;;;;;;;2.05;0.38;;;22.80;54.50;;;;;;5089365;28;20123;-70
2022/07/05 09:09:27;;;;;;;3.42;0.20;;;22.80;54.30;;;;;;5087094;27;20435;-69
2022/07/05 09:11:55;;;;;;;1.27;0.20;;;22.90;54.20;;;;;;5107244;27;20051;-67
2022/07/05 09:14:24;;;;;;;2.78;0.30;;;23.00;54.10;;;;;;5086649;27;20097;-69
2022/07/05 09:16:51;;;;;;;2.95;0.47;;;23.10;53.80;;;;;;5091757;28;20043;-68
2022/07/05 09:19:17;;;;;;;4.18;0.30;;;23.30;53.50;;;;;;5084043;28;20047;-70
2022/07/05 09:21:43;;;;;;;5.28;0.40;;;23.40;52.90;;;;;;5103804;27;20054;-70
2022/07/05 09:24:10;;;;;;;5.50;0.45;;;23.50;52.50;;;;;;5085990;28;20044;-71
2022/07/05 09:29:19;;;;;;;3.15;0.20;;;23.70;51.90;;;;;;5104339;27;1246191;-70
2022/07/05 09:31:47;;;;;;;0.95;0.30;;;23.70;51.80;;;;;;5135942;27;20110;-67
2022/07/05 09:34:14;;;;;;;2.95;0.10;;;23.60;51.90;;;;;;5129512;27;20046;-70
2022/07/05 09:40:18;;;;;;;2.20;0.13;;;23.60;52.00;;;;;;5075882;27;20488;-71
2022/07/05 09:42:44;;;;;;;3.47;0.38;;;23.60;52.00;;;;;;5076051;28;20043;-69
2022/07/05 09:45:10;;;;;;;2.17;0.30;;;23.60;52.00;;;;;;5071269;28;20055;-69
2022/07/05 09:47:35;;;;;;;2.35;0.28;;;23.60;51.90;;;;;;5076596;28;20036;-74
2022/07/05 09:50:05;;;;;;;6.43;0.57;;;23.70;51.80;;;;;;5076281;28;20044;-72
2022/07/05 09:52:40;;;;;;;7.97;0.57;;;23.70;51.90;;;;;;5093692;28;20040;-69
2022/07/05 09:57:47;;;;;;;3.88;0.70;;;23.80;52.00;;;;;;5072995;27;20418;-72
2022/07/05 10:00:16;;;;;;;4.63;0.45;;;23.90;52.30;;;;;;5105341;28;22228;-73
2022/07/05 10:02:50;;;;;;;7.60;0.70;;;23.90;52.50;;;;;;5069390;28;20055;-68
2022/07/05 10:05:19;;;;;;;9.30;0.25;;;23.90;52.70;;;;;;5069065;28;20044;-69
2022/07/05 10:07:48;;;;;;;3.85;0.20;;;23.90;52.70;;;;;;5100724;28;20569;-70
2022/07/05 10:10:15;;;;;;;7.15;0.50;;;23.90;52.70;;;;;;5062446;28;20041;-71
2022/07/05 10:12:42;;;;;;;4.30;0.20;;;23.90;52.80;;;;;;5073403;28;20048;-67
2022/07/05 10:15:10;;;;;;;4.28;0.38;;;23.90;52.90;;;;;;5069057;28;20052;-71
2022/07/05 10:17:40;;;;;;;4.32;0.25;;;23.90;52.90;;;;;;5066723;28;20086;-71
2022/07/05 10:20:12;;;;;;;4.47;0.38;;;23.90;53.00;;;;;;5071642;28;20049;-72
2022/07/05 10:22:39;;;;;;;6.32;0.30;;;23.80;53.10;;;;;;5067400;28;20447;-68
2022/07/05 10:25:05;;;;;;;3.97;0.63;;;23.80;53.10;;;;;;5066292;28;20069;-67
2022/07/05 10:27:33;;;;;;;4.07;0.20;;;23.80;52.70;;;;;;5099999;28;20044;-67
2022/07/05 10:29:59;;;;;;;4.75;0.90;;;23.80;53.00;;;;;;5054726;28;20051;-67
2022/07/05 10:32:28;;;;;;;5.97;0.20;;;23.80;51.90;;;;;;5070281;28;20044;-68
2022/07/05 10:34:54;;;;;;;3.40;0.45;;;23.70;51.40;;;;;;5107128;28;20075;-68
2022/07/05 10:37:25;;;;;;;4.82;0.30;;;23.80;51.00;;;;;;5065879;28;20044;-68
2022/07/05 10:39:51;;;;;;;2.30;0.20;;;23.80;50.80;;;;;;5069896;28;20042;-68
2022/07/05 10:42:26;;;;;;;3.03;0.38;;;23.80;50.40;;;;;;5069918;28;20036;-67
2022/07/05 10:44:51;;;;;;;2.40;0.20;;;23.80;50.20;;;;;;5101015;28;20078;-67
2022/07/05 10:47:18;;;;;;;3.83;0.20;;;23.70;50.10;;;;;;5068498;28;20049;-67
2022/07/05 10:50:00;;;;;;;4.45;0.40;;;23.80;50.00;;;;;;5071785;28;20150;-66
2022/07/05 10:52:26;;;;;;;3.85;0.20;;;23.70;50.10;;;;;;5072070;28;20045;-70
2022/07/05 11:06:43;;;;;;;3.13;0.22;;;23.70;50.80;;;;;;5081994;27;20449;-71
2022/07/05 11:14:34;;;;;;;6.68;0.20;;;23.70;51.10;;;;;;5121736;27;1180496;-69
2022/07/05 11:17:22;;;;;;;2.67;0.10;;;23.70;51.40;;;;;;5143322;27;20034;-69
2022/07/05 11:23:02;;;;;;;2.08;0.38;;;23.70;51.30;;;;;;5060541;28;21013;-70
2022/07/05 11:25:31;;;;;;;1.17;0.20;;;23.80;51.40;;;;;;5035167;28;20048;-69
2022/07/05 11:28:16;;;;;;;2.50;0.25;;;23.80;51.20;;;;;;5039342;28;20037;-70
2022/07/05 11:30:48;;;;;;;1.65;0.10;;;23.80;51.20;;;;;;5035637;28;20036;-70
2022/07/05 11:33:34;;;;;;;1.38;0.17;;;23.80;51.20;;;;;;5051787;28;20041;-69
2022/07/05 11:36:01;;;;;;;1.70;0.40;;;23.80;51.30;;;;;;5053574;28;20052;-72
2022/07/05 11:38:27;;;;;;;1.45;0.10;;;23.70;51.40;;;;;;5037458;28;20041;-74
2022/07/05 11:40:53;;;;;;;1.95;0.20;;;23.70;51.50;;;;;;5037881;28;20048;-69
2022/07/05 11:43:28;;;;;;;2.05;0.10;;;23.70;51.60;;;;;;5037355;28;20045;-73
2022/07/05 11:45:58;;;;;;;2.88;0.20;;;23.70;51.70;;;;;;5033362;28;20493;-74
2022/07/05 11:48:25;;;;;;;2.20;0.20;;;23.70;51.90;;;;;;5038148;28;20128;-72
2022/07/05 11:50:51;;;;;;;3.88;0.30;;;23.70;52.00;;;;;;5034006;28;20045;-72
2022/07/05 11:53:26;;;;;;;3.70;0.10;;;23.80;52.90;;;;;;5047837;28;20052;-68
2022/07/05 11:55:58;;;;;;;1.30;0.17;;;23.80;52.20;;;;;;5040791;28;20142;-70
2022/07/05 11:58:31;;;;;;;3.63;0.50;;;23.80;51.90;;;;;;5038972;28;20045;-72
2022/07/05 12:00:57;;;;;;;4.25;0.30;;;23.90;51.90;;;;;;5037559;28;20048;-72
2022/07/05 12:03:22;;;;;;;2.85;0.20;;;23.90;51.90;;;;;;5037862;28;20084;-73
2022/07/05 12:05:48;;;;;;;6.50;0.30;;;23.90;51.90;;;;;;5036204;28;20171;-75
2022/07/05 12:08:29;;;;;;;3.97;0.30;;;23.90;51.90;;;;;;5033180;28;20118;-72
2022/07/05 12:13:44;;;;;;;1.30;0.20;;;24.00;51.80;;;;;;5034230;28;20049;-70
2022/07/05 12:16:11;;;;;;;3.58;0.20;;;24.00;51.70;;;;;;5031636;28;20045;-71
2022/07/05 12:19:00;;;;;;;6.90;0.75;;;24.00;51.80;;;;;;5037299;28;20094;-76
2022/07/05 12:21:26;;;;;;;5.68;0.60;;;24.00;51.70;;;;;;5044478;28;20111;-71
2022/07/05 12:23:52;;;;;;;4.28;0.30;;;24.00;51.80;;;;;;5034294;28;20049;-71
2022/07/05 12:26:19;;;;;;;4.43;0.55;;;24.00;51.90;;;;;;5032432;28;20133;-76
2022/07/05 12:28:45;;;;;;;5.32;0.52;;;24.00;52.00;;;;;;5037137;28;20049;-69
2022/07/05 12:31:20;;;;;;;6.85;0.22;;;24.00;52.00;;;;;;5040169;28;20437;-75
2022/07/05 12:33:48;;;;;;;6.00;1.10;;;24.00;52.20;;;;;;5024457;28;20056;-69
2022/07/05 12:36:16;;;;;;;3.97;0.40;;;24.00;52.30;;;;;;5002998;28;20045;-72
2022/07/05 12:38:42;;;;;;;8.10;0.55;;;24.10;52.40;;;;;;5020287;28;20072;-74
2022/07/05 12:41:08;;;;;;;8.27;0.57;;;24.10;52.30;;;;;;5020592;28;20693;-72
2022/07/05 12:43:55;;;;;;;4.53;0.30;;;24.10;52.30;;;;;;5016325;28;20041;-71
2022/07/05 12:46:35;;;;;;;5.88;0.77;;;24.10;52.50;;;;;;5017548;28;20033;-72
2022/07/05 12:49:00;;;;;;;4.45;1.05;;;24.10;52.50;;;;;;5016645;28;20046;-72
2022/07/05 12:51:43;;;;;;;2.15;0.40;;;24.10;52.40;;;;;;5023997;28;20073;-72
2022/07/05 13:00:08;;;;;;;5.35;0.55;;;24.10;52.20;;;;;;5015870;28;20045;-74
2022/07/05 13:05:24;;;;;;;4.25;0.45;;;24.20;52.30;;;;;;5079910;27;20363;-70
2022/07/05 13:07:51;;;;;;;6.10;0.30;;;24.20;51.70;;;;;;5060208;28;20036;-71
2022/07/05 13:12:57;;;;;;;5.30;0.20;;;24.20;50.70;;;;;;5123314;27;1168377;-72
2022/07/05 13:15:26;;;;;;;4.07;0.82;;;24.20;50.20;;;;;;5120796;27;20058;-72
2022/07/05 13:17:51;;;;;;;3.55;0.30;;;24.20;50.00;;;;;;5122988;27;20035;-72
2022/07/05 13:20:19;;;;;;;4.50;0.10;;;24.10;49.60;;;;;;5123298;27;20105;-73
2022/07/05 13:22:48;;;;;;;2.83;0.30;;;24.20;49.30;;;;;;5104004;27;20047;-73
2022/07/05 13:25:14;;;;;;;4.07;0.20;;;24.10;49.80;;;;;;5115629;27;20083;-72
2022/07/05 13:27:41;;;;;;;5.97;0.30;;;24.20;49.10;;;;;;5123644;27;20049;-71
2022/07/05 13:30:07;;;;;;;6.25;0.30;;;24.20;48.90;;;;;;5137831;27;20031;-73
2022/07/05 13:32:33;;;;;;;1.33;0.20;;;24.20;48.90;;;;;;5123711;27;20114;-67
2022/07/05 13:34:59;;;;;;;13.70;1.55;;;24.20;48.90;;;;;;5121142;28;20126;-69
2022/07/05 13:37:24;;;;;;;2.65;0.10;;;24.20;48.60;;;;;;5124890;27;20142;-69